Time;durP1;ratioP1;P1;durP2;ratioP2;P2;SDS_P1;SDS_P2;PMS_P1;PMS_P2;Temp;Humidity;BMP_temperature;BMP_pressure;BME280_temperature;BME280_humidity;BME280_pressure;Samples;Min_cycle;Max_cycle;Signal;HPM_P1;HPM_P2
2022/08/13 00:01:11;;;;;;;3.33;2.70;;;;;;;;;;2100616;28;20078;-67
2022/08/13 00:02:30;;;;;;;5.35;2.60;;;;;;;;;;2098881;28;20024;-67
2022/08/13 00:03:51;;;;;;;4.00;3.25;;;;;;;;;;2100226;28;20445;-66
2022/08/13 00:05:10;;;;;;;2.95;2.75;;;;;;;;;;2100236;28;21686;-66
2022/08/13 00:07:54;;;;;;;3.38;2.97;;;;;;;;;;2099685;28;20021;-67
2022/08/13 00:09:14;;;;;;;3.42;3.05;;;;;;;;;;2099450;28;20055;-66
2022/08/13 00:10:33;;;;;;;3.03;2.47;;;;;;;;;;2098113;28;20024;-67
2022/08/13 00:13:31;;;;;;;3.30;2.95;;;;;;;;;;2100580;28;20082;-67
2022/08/13 00:14:50;;;;;;;3.22;2.95;;;;;;;;;;2100853;28;20472;-67
2022/08/13 00:16:09;;;;;;;3.35;3.05;;;;;;;;;;2101937;28;20028;-67
2022/08/13 00:17:31;;;;;;;3.30;3.00;;;;;;;;;;2101010;28;20024;-66
2022/08/13 00:18:50;;;;;;;2.85;2.53;;;;;;;;;;2100438;28;20032;-66
2022/08/13 00:20:11;;;;;;;2.95;2.63;;;;;;;;;;2100800;28;20021;-67
2022/08/13 00:21:30;;;;;;;2.80;2.60;;;;;;;;;;2101052;28;20032;-67
2022/08/13 00:22:49;;;;;;;3.17;2.88;;;;;;;;;;2099518;28;20040;-67
2022/08/13 00:24:08;;;;;;;4.20;2.40;;;;;;;;;;2100029;28;20099;-67
2022/08/13 00:25:27;;;;;;;2.55;2.35;;;;;;;;;;2099610;28;20021;-67
2022/08/13 00:26:46;;;;;;;3.55;2.55;;;;;;;;;;2101077;28;20025;-67
2022/08/13 00:28:05;;;;;;;4.90;3.28;;;;;;;;;;2099286;28;20033;-67
2022/08/13 00:29:25;;;;;;;4.30;2.38;;;;;;;;;;2100250;28;20025;-67
2022/08/13 00:30:45;;;;;;;2.70;2.47;;;;;;;;;;2098511;28;20021;-68
2022/08/13 00:32:04;;;;;;;4.60;2.50;;;;;;;;;;2099810;28;20497;-67
2022/08/13 00:33:23;;;;;;;2.50;2.30;;;;;;;;;;2097947;28;20032;-67
2022/08/13 00:34:43;;;;;;;3.25;2.50;;;;;;;;;;2099172;28;20033;-66
2022/08/13 00:36:03;;;;;;;2.33;2.22;;;;;;;;;;2100365;28;20091;-68
2022/08/13 00:37:22;;;;;;;2.45;2.25;;;;;;;;;;2100582;28;20040;-67
2022/08/13 00:38:46;;;;;;;2.97;2.60;;;;;;;;;;2100454;28;20024;-67
2022/08/13 00:40:06;;;;;;;3.67;2.80;;;;;;;;;;2100770;28;20044;-67
2022/08/13 00:41:40;;;;;;;3.05;2.60;;;;;;;;;;2099829;28;20036;-67
2022/08/13 00:43:03;;;;;;;2.83;2.53;;;;;;;;;;2101065;28;20036;-67
2022/08/13 00:44:23;;;;;;;2.72;2.25;;;;;;;;;;2101272;28;20029;-67
2022/08/13 00:45:42;;;;;;;2.40;2.20;;;;;;;;;;2098945;28;20017;-67
2022/08/13 00:48:42;;;;;;;2.58;2.22;;;;;;;;;;2099631;28;20047;-67
2022/08/13 00:50:03;;;;;;;2.50;2.30;;;;;;;;;;2100464;28;20481;-67
2022/08/13 00:51:23;;;;;;;2.95;2.05;;;;;;;;;;2101037;28;20032;-67
2022/08/13 00:52:41;;;;;;;2.35;2.00;;;;;;;;;;2095303;28;20028;-67
2022/08/13 00:54:04;;;;;;;1.92;1.83;;;;;;;;;;2100668;28;20064;-68
2022/08/13 00:55:23;;;;;;;2.42;2.22;;;;;;;;;;2099291;28;20501;-67
2022/08/13 00:56:42;;;;;;;2.10;2.00;;;;;;;;;;2101945;28;20440;-67
2022/08/13 00:58:01;;;;;;;3.00;1.95;;;;;;;;;;2101012;28;20028;-66
2022/08/13 00:59:20;;;;;;;3.92;2.00;;;;;;;;;;2099668;28;20036;-66
2022/08/13 01:00:39;;;;;;;3.92;2.10;;;;;;;;;;2098431;28;20024;-66
2022/08/13 01:01:59;;;;;;;3.22;2.40;;;;;;;;;;2098896;28;20482;-66
2022/08/13 01:03:18;;;;;;;3.08;1.92;;;;;;;;;;2101383;28;20032;-66
2022/08/13 01:04:38;;;;;;;2.05;1.85;;;;;;;;;;2102490;28;20029;-66
2022/08/13 01:06:01;;;;;;;2.95;1.88;;;;;;;;;;2100514;28;20021;-67
2022/08/13 01:07:20;;;;;;;2.20;1.83;;;;;;;;;;2100424;28;20024;-66
2022/08/13 01:08:40;;;;;;;2.30;2.10;;;;;;;;;;2099676;28;20042;-66
2022/08/13 01:09:59;;;;;;;1.90;1.80;;;;;;;;;;2100779;28;20028;-66
2022/08/13 01:11:19;;;;;;;1.83;1.73;;;;;;;;;;2100023;28;20032;-66
2022/08/13 01:12:39;;;;;;;2.83;1.70;;;;;;;;;;2100639;28;20377;-67
2022/08/13 01:13:59;;;;;;;2.83;1.77;;;;;;;;;;2099481;28;20028;-66
2022/08/13 01:15:18;;;;;;;2.60;2.03;;;;;;;;;;2098437;28;20032;-67
2022/08/13 01:16:37;;;;;;;2.88;1.92;;;;;;;;;;2100049;28;20122;-66
2022/08/13 01:17:57;;;;;;;1.88;1.77;;;;;;;;;;2101167;28;20027;-66
2022/08/13 01:19:16;;;;;;;2.20;2.00;;;;;;;;;;2099515;28;20028;-66
2022/08/13 01:20:42;;;;;;;1.95;1.83;;;;;;;;;;2099822;28;20036;-66
2022/08/13 01:22:02;;;;;;;2.03;1.83;;;;;;;;;;2100184;28;20142;-66
2022/08/13 01:23:20;;;;;;;2.63;2.17;;;;;;;;;;2101258;28;20449;-66
2022/08/13 01:24:41;;;;;;;2.53;1.80;;;;;;;;;;2099777;28;20020;-67
2022/08/13 01:26:01;;;;;;;2.53;1.63;;;;;;;;;;2099383;28;20139;-67
2022/08/13 01:27:21;;;;;;;3.08;2.10;;;;;;;;;;2101249;28;20033;-66
2022/08/13 01:28:40;;;;;;;2.13;2.03;;;;;;;;;;2101459;28;20052;-67
2022/08/13 01:30:01;;;;;;;2.03;1.85;;;;;;;;;;2100518;28;20040;-66
2022/08/13 01:31:21;;;;;;;2.75;1.98;;;;;;;;;;2100613;28;20017;-67
2022/08/13 01:32:40;;;;;;;3.13;1.70;;;;;;;;;;2099879;28;20520;-66
2022/08/13 01:34:00;;;;;;;2.83;1.75;;;;;;;;;;2100095;28;20501;-66
2022/08/13 01:35:20;;;;;;;1.95;1.85;;;;;;;;;;2098468;28;20083;-66
2022/08/13 01:36:40;;;;;;;2.00;1.90;;;;;;;;;;2099606;28;20400;-66
2022/08/13 01:37:59;;;;;;;2.85;2.53;;;;;;;;;;2100976;28;20036;-66
2022/08/13 01:39:18;;;;;;;2.67;2.47;;;;;;;;;;2098799;28;20052;-66
2022/08/13 01:40:37;;;;;;;2.20;2.00;;;;;;;;;;2098409;28;20016;-66
2022/08/13 01:41:56;;;;;;;2.33;2.08;;;;;;;;;;2099611;28;20064;-66
2022/08/13 01:43:17;;;;;;;2.17;2.00;;;;;;;;;;2099488;28;20024;-66
2022/08/13 01:44:36;;;;;;;2.58;1.98;;;;;;;;;;2098419;28;20021;-66
2022/08/13 01:45:55;;;;;;;3.53;2.65;;;;;;;;;;2099531;28;20086;-66
2022/08/13 01:50:31;;;;;;;1.80;1.70;;;;;;;;;;2099758;28;20037;-68
2022/08/13 01:51:50;;;;;;;2.33;2.13;;;;;;;;;;2100458;28;20082;-69
2022/08/13 01:53:11;;;;;;;2.45;2.03;;;;;;;;;;2099502;28;20025;-68
2022/08/13 01:54:30;;;;;;;2.45;2.25;;;;;;;;;;2099895;28;20033;-68
2022/08/13 01:55:53;;;;;;;4.22;2.30;;;;;;;;;;2099982;28;20424;-69
2022/08/13 01:57:13;;;;;;;2.55;2.35;;;;;;;;;;2100419;28;20020;-68
2022/08/13 01:58:34;;;;;;;2.40;2.20;;;;;;;;;;2100034;28;20118;-67
2022/08/13 01:59:53;;;;;;;2.63;2.42;;;;;;;;;;2099507;28;20099;-66
2022/08/13 02:01:13;;;;;;;2.88;2.63;;;;;;;;;;2099327;28;20423;-67
2022/08/13 02:02:32;;;;;;;3.38;2.42;;;;;;;;;;2099765;28;20020;-69
2022/08/13 02:03:56;;;;;;;4.72;2.53;;;;;;;;;;2100282;28;20024;-68
2022/08/13 02:05:15;;;;;;;2.55;2.35;;;;;;;;;;2100733;28;20059;-68
2022/08/13 02:06:34;;;;;;;3.58;2.60;;;;;;;;;;2099874;28;20020;-68
2022/08/13 02:07:54;;;;;;;3.17;2.83;;;;;;;;;;2103083;28;20024;-68
2022/08/13 02:09:13;;;;;;;4.72;2.67;;;;;;;;;;2101057;28;20029;-68
2022/08/13 02:10:32;;;;;;;2.70;2.40;;;;;;;;;;2101655;28;20032;-68
2022/08/13 02:11:51;;;;;;;5.68;3.28;;;;;;;;;;2102312;28;20029;-67
2022/08/13 02:13:13;;;;;;;3.13;2.83;;;;;;;;;;2103037;28;20032;-68
2022/08/13 02:14:33;;;;;;;5.18;2.90;;;;;;;;;;2100451;28;20046;-67
2022/08/13 02:15:52;;;;;;;3.10;2.80;;;;;;;;;;2100758;28;20033;-68
2022/08/13 02:17:27;;;;;;;3.83;2.70;;;;;;;;;;2101124;28;20021;-67
2022/08/13 02:18:48;;;;;;;2.72;2.53;;;;;;;;;;2102626;28;20501;-67
2022/08/13 02:20:09;;;;;;;2.92;2.72;;;;;;;;;;2099908;28;20032;-68
2022/08/13 02:21:31;;;;;;;3.33;3.13;;;;;;;;;;2101492;28;20020;-67
2022/08/13 02:22:50;;;;;;;4.35;2.83;;;;;;;;;;2099999;28;20048;-67
2022/08/13 02:24:13;;;;;;;4.90;3.38;;;;;;;;;;2100540;28;20032;-66
2022/08/13 02:25:33;;;;;;;5.30;3.67;;;;;;;;;;2101269;28;20459;-67
2022/08/13 02:26:53;;;;;;;3.55;3.25;;;;;;;;;;2101258;28;20024;-67
2022/08/13 02:28:14;;;;;;;3.45;3.10;;;;;;;;;;2101742;28;20032;-67
2022/08/13 02:29:33;;;;;;;4.97;4.20;;;;;;;;;;2101018;28;20016;-67
2022/08/13 02:30:53;;;;;;;3.97;3.50;;;;;;;;;;2099420;28;20032;-65
2022/08/13 02:32:12;;;;;;;3.90;3.60;;;;;;;;;;2100938;28;20100;-66
2022/08/13 02:33:33;;;;;;;4.22;3.80;;;;;;;;;;2102412;28;20032;-66
2022/08/13 02:34:52;;;;;;;4.15;3.70;;;;;;;;;;2100645;28;20110;-65
2022/08/13 02:36:11;;;;;;;4.68;3.90;;;;;;;;;;2102347;28;20055;-66
2022/08/13 02:37:32;;;;;;;3.80;3.50;;;;;;;;;;2102504;28;20496;-65
2022/08/13 02:38:59;;;;;;;4.38;3.97;;;;;;;;;;2101338;28;20111;-66
2022/08/13 02:41:57;;;;;;;4.47;3.80;;;;;;;;;;2101549;28;20047;-66
2022/08/13 02:43:16;;;;;;;4.35;3.75;;;;;;;;;;2099641;28;20585;-66
2022/08/13 02:44:36;;;;;;;6.30;4.35;;;;;;;;;;2098812;28;20107;-65
2022/08/13 02:45:55;;;;;;;3.92;3.63;;;;;;;;;;2099127;28;20568;-66
2022/08/13 02:47:15;;;;;;;4.65;4.35;;;;;;;;;;2102353;28;20021;-66
2022/08/13 02:48:34;;;;;;;5.00;4.60;;;;;;;;;;2100413;28;20075;-66
2022/08/13 02:49:53;;;;;;;5.05;4.15;;;;;;;;;;2101857;28;20028;-65
2022/08/13 02:51:12;;;;;;;6.18;4.90;;;;;;;;;;2101340;28;20480;-65
2022/08/13 02:52:31;;;;;;;4.55;4.18;;;;;;;;;;2101895;28;20032;-66
2022/08/13 02:53:49;;;;;;;5.13;4.72;;;;;;;;;;2100842;28;20039;-66
2022/08/13 02:55:09;;;;;;;5.28;4.88;;;;;;;;;;2100876;28;20306;-66
2022/08/13 02:56:28;;;;;;;7.57;5.38;;;;;;;;;;2101801;28;20031;-65
2022/08/13 02:57:47;;;;;;;5.13;4.35;;;;;;;;;;2101502;28;20036;-66
2022/08/13 02:59:10;;;;;;;5.20;4.65;;;;;;;;;;2101291;28;20071;-65
2022/08/13 03:00:30;;;;;;;6.55;5.85;;;;;;;;;;2099451;28;20055;-65
2022/08/13 03:01:51;;;;;;;5.95;5.35;;;;;;;;;;2100991;28;20032;-66
2022/08/13 03:03:09;;;;;;;6.20;5.70;;;;;;;;;;2100502;28;20064;-66
2022/08/13 03:04:28;;;;;;;5.68;5.28;;;;;;;;;;2101945;28;20189;-65
2022/08/13 03:05:47;;;;;;;5.53;4.95;;;;;;;;;;2100714;28;20028;-65
2022/08/13 03:07:06;;;;;;;6.00;5.50;;;;;;;;;;2101546;28;20489;-66
2022/08/13 03:08:29;;;;;;;6.60;6.00;;;;;;;;;;2100978;28;20493;-66
2022/08/13 03:09:47;;;;;;;7.13;6.53;;;;;;;;;;2100446;28;20060;-67
2022/08/13 03:11:07;;;;;;;6.55;5.95;;;;;;;;;;2099133;28;20045;-66
2022/08/13 03:12:26;;;;;;;6.88;6.18;;;;;;;;;;2101484;28;20388;-67
2022/08/13 03:13:54;;;;;;;6.45;6.05;;;;;;;;;;2101914;28;20032;-67
2022/08/13 03:15:14;;;;;;;7.57;6.97;;;;;;;;;;2100021;28;20107;-67
2022/08/13 03:16:33;;;;;;;6.80;6.28;;;;;;;;;;2101250;28;20033;-67
2022/08/13 03:17:52;;;;;;;7.05;6.38;;;;;;;;;;2101605;28;20063;-66
2022/08/13 03:19:11;;;;;;;7.93;6.75;;;;;;;;;;2100704;28;20028;-66
2022/08/13 03:20:31;;;;;;;7.72;7.07;;;;;;;;;;2101056;28;20028;-67
2022/08/13 03:21:50;;;;;;;7.55;6.85;;;;;;;;;;2100911;28;20040;-66
2022/08/13 03:23:09;;;;;;;7.22;6.63;;;;;;;;;;2100725;28;20032;-67
2022/08/13 03:24:27;;;;;;;6.97;6.35;;;;;;;;;;2100313;28;20107;-66
2022/08/13 03:25:46;;;;;;;8.20;7.38;;;;;;;;;;2101562;28;20068;-66
2022/08/13 03:27:08;;;;;;;9.00;6.53;;;;;;;;;;2100088;28;20033;-67
2022/08/13 03:28:27;;;;;;;7.20;6.55;;;;;;;;;;2100860;28;20025;-67
2022/08/13 03:29:49;;;;;;;6.65;6.07;;;;;;;;;;2098363;28;20111;-66
2022/08/13 03:31:08;;;;;;;6.82;6.30;;;;;;;;;;2100769;28;20029;-67
2022/08/13 03:32:27;;;;;;;8.60;7.00;;;;;;;;;;2098925;28;20032;-65
2022/08/13 03:33:46;;;;;;;7.22;6.70;;;;;;;;;;2101829;28;20033;-67
2022/08/13 03:35:05;;;;;;;9.55;7.22;;;;;;;;;;2100191;28;20036;-67
2022/08/13 03:36:25;;;;;;;8.82;7.72;;;;;;;;;;2098845;28;20044;-67
2022/08/13 03:37:45;;;;;;;8.23;7.07;;;;;;;;;;2100319;28;20103;-67
2022/08/13 03:39:05;;;;;;;8.50;7.70;;;;;;;;;;2101122;28;20028;-67
2022/08/13 03:40:25;;;;;;;8.40;7.60;;;;;;;;;;2100445;28;20029;-68
2022/08/13 03:41:44;;;;;;;8.32;7.68;;;;;;;;;;2100674;28;20392;-67
2022/08/13 03:43:09;;;;;;;8.45;7.65;;;;;;;;;;2101099;28;21372;-66
2022/08/13 03:44:28;;;;;;;9.38;8.38;;;;;;;;;;2099258;28;20021;-66
2022/08/13 03:45:48;;;;;;;10.50;8.45;;;;;;;;;;2101386;28;20029;-66
2022/08/13 03:47:07;;;;;;;9.07;8.32;;;;;;;;;;2101168;28;20056;-66
2022/08/13 03:48:27;;;;;;;9.30;8.38;;;;;;;;;;2100319;28;20422;-66
2022/08/13 03:49:46;;;;;;;8.48;7.75;;;;;;;;;;2100019;28;20052;-66
2022/08/13 03:51:06;;;;;;;8.52;7.80;;;;;;;;;;2099588;28;20025;-67
2022/08/13 03:52:25;;;;;;;7.30;6.68;;;;;;;;;;2101059;28;20095;-67
2022/08/13 03:53:45;;;;;;;7.78;7.15;;;;;;;;;;2101575;28;20024;-67
2022/08/13 03:55:11;;;;;;;8.68;8.05;;;;;;;;;;2101086;28;20110;-67
2022/08/13 03:56:31;;;;;;;8.43;7.65;;;;;;;;;;2099637;28;20020;-67
2022/08/13 03:57:50;;;;;;;8.70;7.90;;;;;;;;;;2101324;28;20036;-66
2022/08/13 03:59:10;;;;;;;7.68;6.97;;;;;;;;;;2102350;28;20033;-67
2022/08/13 04:00:29;;;;;;;8.40;7.70;;;;;;;;;;2098361;28;20662;-66
2022/08/13 04:01:50;;;;;;;7.38;6.78;;;;;;;;;;2101248;28;20036;-67
2022/08/13 04:03:20;;;;;;;8.60;7.80;;;;;;;;;;2101411;28;20036;-66
2022/08/13 04:04:39;;;;;;;10.27;7.05;;;;;;;;;;2100623;28;20028;-67
2022/08/13 04:06:00;;;;;;;8.15;7.35;;;;;;;;;;2101412;28;20020;-67
2022/08/13 04:07:22;;;;;;;8.57;7.80;;;;;;;;;;2100508;28;20476;-67
2022/08/13 04:08:43;;;;;;;10.35;8.52;;;;;;;;;;2101080;28;20028;-67
2022/08/13 04:10:04;;;;;;;9.07;8.25;;;;;;;;;;2099591;28;20032;-66
2022/08/13 04:11:25;;;;;;;9.20;7.85;;;;;;;;;;2100300;28;20024;-68
2022/08/13 04:12:44;;;;;;;8.75;7.95;;;;;;;;;;2102128;28;20081;-67
2022/08/13 04:14:03;;;;;;;9.85;8.85;;;;;;;;;;2099932;28;20028;-67
2022/08/13 04:15:22;;;;;;;9.05;8.07;;;;;;;;;;2099607;28;20500;-67
2022/08/13 04:16:41;;;;;;;8.88;8.07;;;;;;;;;;2100522;28;20044;-68
2022/08/13 04:18:00;;;;;;;8.30;7.50;;;;;;;;;;2101728;28;20024;-66
2022/08/13 04:19:19;;;;;;;9.68;7.85;;;;;;;;;;2099692;28;20544;-67
2022/08/13 04:20:42;;;;;;;8.32;7.45;;;;;;;;;;2098741;28;20453;-66
2022/08/13 04:22:01;;;;;;;9.77;8.50;;;;;;;;;;2099933;28;20040;-67
2022/08/13 04:23:21;;;;;;;8.75;7.80;;;;;;;;;;2100462;28;20059;-66
2022/08/13 04:24:40;;;;;;;9.43;7.13;;;;;;;;;;2098964;28;20020;-66
2022/08/13 04:25:59;;;;;;;8.20;7.13;;;;;;;;;;2101273;28;20448;-67
2022/08/13 04:27:18;;;;;;;9.30;8.38;;;;;;;;;;2100406;28;20103;-67
2022/08/13 04:28:38;;;;;;;9.68;8.60;;;;;;;;;;2101746;28;20051;-67
2022/08/13 04:29:58;;;;;;;9.98;8.10;;;;;;;;;;2099363;28;20454;-67
2022/08/13 04:31:17;;;;;;;9.68;7.93;;;;;;;;;;2099765;28;20048;-67
2022/08/13 04:32:40;;;;;;;9.88;7.97;;;;;;;;;;2098832;28;20510;-67
2022/08/13 04:33:59;;;;;;;;;;;;;;;;;;2100545;28;20032;-67
2022/08/13 04:35:19;;;;;;;9.52;8.50;;;;;;;;;;2100701;28;20340;-67
2022/08/13 04:36:37;;;;;;;9.32;8.52;;;;;;;;;;2100428;28;20023;-67
2022/08/13 04:37:57;;;;;;;10.07;9.13;;;;;;;;;;2100141;28;20496;-67
2022/08/13 04:39:16;;;;;;;9.52;8.70;;;;;;;;;;2099436;28;20158;-66
2022/08/13 04:40:35;;;;;;;9.82;7.65;;;;;;;;;;2099777;28;20032;-67
2022/08/13 04:41:54;;;;;;;8.45;7.72;;;;;;;;;;2100701;28;20040;-66
2022/08/13 04:43:14;;;;;;;9.43;8.63;;;;;;;;;;2100820;28;20107;-67
2022/08/13 04:44:33;;;;;;;10.23;9.18;;;;;;;;;;2100312;28;20048;-67
2022/08/13 04:45:52;;;;;;;9.43;8.02;;;;;;;;;;2099446;28;20441;-67
2022/08/13 04:47:11;;;;;;;8.43;7.63;;;;;;;;;;2098604;28;20024;-66
2022/08/13 04:48:35;;;;;;;7.75;7.10;;;;;;;;;;2099555;28;20028;-67
2022/08/13 04:49:53;;;;;;;7.97;7.22;;;;;;;;;;2098006;28;20028;-68
2022/08/13 04:51:14;;;;;;;8.52;7.72;;;;;;;;;;2100959;28;20025;-68
2022/08/13 04:52:32;;;;;;;7.80;7.10;;;;;;;;;;2099415;28;20016;-68
2022/08/13 04:53:52;;;;;;;8.98;8.18;;;;;;;;;;2100334;28;20580;-68
2022/08/13 04:55:12;;;;;;;9.43;8.15;;;;;;;;;;2099774;28;20103;-67
2022/08/13 04:56:31;;;;;;;8.90;7.57;;;;;;;;;;2101320;28;20028;-67
2022/08/13 04:57:50;;;;;;;9.15;8.25;;;;;;;;;;2098454;28;20028;-67
2022/08/13 04:59:09;;;;;;;8.88;8.07;;;;;;;;;;2101237;28;20115;-67
2022/08/13 05:00:32;;;;;;;8.70;7.90;;;;;;;;;;2097984;28;20501;-67
2022/08/13 05:01:51;;;;;;;;;;;;;;;;;;2101198;28;20029;-67
2022/08/13 05:03:14;;;;;;;8.10;7.43;;;;;;;;;;2099887;28;20315;-67
2022/08/13 05:04:33;;;;;;;7.53;6.97;;;;;;;;;;2101226;28;20032;-67
2022/08/13 05:05:52;;;;;;;7.32;6.70;;;;;;;;;;2098794;28;20488;-67
2022/08/13 05:07:11;;;;;;;7.57;6.95;;;;;;;;;;2099488;28;20036;-66
2022/08/13 05:08:31;;;;;;;7.45;6.63;;;;;;;;;;2100201;28;20025;-68
2022/08/13 05:09:50;;;;;;;7.63;6.93;;;;;;;;;;2101529;28;20028;-66
2022/08/13 05:11:12;;;;;;;6.90;6.28;;;;;;;;;;2099559;28;20036;-67
2022/08/13 05:12:38;;;;;;;7.43;6.75;;;;;;;;;;2099991;28;20028;-68
2022/08/13 05:13:57;;;;;;;7.13;6.45;;;;;;;;;;2100043;28;20036;-69
2022/08/13 05:15:16;;;;;;;7.38;6.72;;;;;;;;;;2098229;28;20404;-68
2022/08/13 05:16:36;;;;;;;6.70;6.13;;;;;;;;;;2100280;28;20067;-68
2022/08/13 05:17:55;;;;;;;6.88;6.30;;;;;;;;;;2098750;28;20044;-68
2022/08/13 05:19:14;;;;;;;6.80;6.30;;;;;;;;;;2097460;28;20029;-68
2022/08/13 05:20:33;;;;;;;6.78;6.18;;;;;;;;;;2099694;28;20043;-67
2022/08/13 05:21:52;;;;;;;7.82;6.43;;;;;;;;;;2100651;28;20029;-68
2022/08/13 05:23:13;;;;;;;7.45;6.30;;;;;;;;;;2098376;28;20044;-68
2022/08/13 05:24:32;;;;;;;6.38;5.78;;;;;;;;;;2101057;28;20033;-67
2022/08/13 05:25:52;;;;;;;6.50;5.90;;;;;;;;;;2098577;28;20033;-67
2022/08/13 05:27:11;;;;;;;5.75;5.28;;;;;;;;;;2100136;28;20020;-66
2022/08/13 05:28:31;;;;;;;6.22;5.82;;;;;;;;;;2098365;28;20048;-68
2022/08/13 05:29:50;;;;;;;5.75;5.28;;;;;;;;;;2100014;28;20040;-68
2022/08/13 05:31:09;;;;;;;5.65;5.07;;;;;;;;;;2100206;28;20036;-68
2022/08/13 05:32:29;;;;;;;5.28;4.88;;;;;;;;;;2100147;28;20314;-68
2022/08/13 05:33:48;;;;;;;6.10;5.47;;;;;;;;;;2100478;28;20036;-67
2022/08/13 05:35:11;;;;;;;7.10;5.38;;;;;;;;;;2100692;28;20021;-68
2022/08/13 05:36:31;;;;;;;;;;;;;;;;;;2100805;28;21816;-67
2022/08/13 05:37:50;;;;;;;6.57;5.00;;;;;;;;;;2100417;28;19908;-68
2022/08/13 05:39:09;;;;;;;5.38;5.07;;;;;;;;;;2100740;28;20508;-68
2022/08/13 05:40:28;;;;;;;4.90;4.50;;;;;;;;;;2100703;28;20040;-67
2022/08/13 05:41:49;;;;;;;5.03;4.63;;;;;;;;;;2100031;28;20036;-68
2022/08/13 05:43:13;;;;;;;5.40;4.82;;;;;;;;;;2100313;28;20146;-65
2022/08/13 05:44:33;;;;;;;4.55;4.25;;;;;;;;;;2100167;28;20033;-67
2022/08/13 05:45:57;;;;;;;4.85;4.47;;;;;;;;;;2102490;28;20024;-69
2022/08/13 05:47:17;;;;;;;4.40;4.10;;;;;;;;;;2101697;28;20434;-67
2022/08/13 05:48:36;;;;;;;4.85;4.50;;;;;;;;;;2100447;28;20105;-69
2022/08/13 05:49:55;;;;;;;4.80;4.38;;;;;;;;;;2099542;28;20063;-67
2022/08/13 05:51:15;;;;;;;4.22;3.97;;;;;;;;;;2098890;28;20021;-68
2022/08/13 05:52:35;;;;;;;4.18;3.88;;;;;;;;;;2100730;28;20111;-70
2022/08/13 05:53:57;;;;;;;3.92;3.63;;;;;;;;;;2102218;28;20392;-70
2022/08/13 05:55:18;;;;;;;5.68;4.28;;;;;;;;;;2098822;28;20403;-71
2022/08/13 05:56:38;;;;;;;3.65;3.35;;;;;;;;;;2100342;28;20029;-70
2022/08/13 05:57:57;;;;;;;6.57;4.00;;;;;;;;;;2100829;28;20028;-69
2022/08/13 06:04:11;;;;;;;3.72;3.42;;;;;;;;;;2100881;28;20107;-67
2022/08/13 06:05:30;;;;;;;3.42;3.20;;;;;;;;;;2100638;28;20154;-67
2022/08/13 06:06:50;;;;;;;3.70;3.40;;;;;;;;;;2100685;28;20025;-67
2022/08/13 06:08:09;;;;;;;2.95;2.75;;;;;;;;;;2100131;28;20036;-67
2022/08/13 06:09:29;;;;;;;3.42;3.15;;;;;;;;;;2103274;28;20103;-67
2022/08/13 06:10:48;;;;;;;4.18;2.92;;;;;;;;;;2100668;28;20452;-66
2022/08/13 06:12:08;;;;;;;3.30;3.10;;;;;;;;;;2102060;28;20052;-67
2022/08/13 06:13:28;;;;;;;2.97;2.78;;;;;;;;;;2100249;28;20024;-66
2022/08/13 06:14:47;;;;;;;3.60;3.33;;;;;;;;;;2100288;28;20028;-69
2022/08/13 06:16:10;;;;;;;3.42;3.00;;;;;;;;;;2099392;28;20017;-67
2022/08/13 06:17:29;;;;;;;3.80;3.03;;;;;;;;;;2103077;28;20032;-68
2022/08/13 06:18:48;;;;;;;3.20;2.92;;;;;;;;;;2101420;28;20491;-68
2022/08/13 06:20:08;;;;;;;11.02;4.50;;;;;;;;;;2103058;28;20029;-67
2022/08/13 06:21:27;;;;;;;3.05;2.72;;;;;;;;;;2101128;28;20104;-67
2022/08/13 06:22:47;;;;;;;3.58;2.95;;;;;;;;;;2101443;28;20103;-67
2022/08/13 06:24:06;;;;;;;5.03;3.35;;;;;;;;;;2101598;28;20032;-66
2022/08/13 06:25:27;;;;;;;3.03;2.83;;;;;;;;;;2102424;28;20028;-67
2022/08/13 06:26:50;;;;;;;2.92;2.72;;;;;;;;;;2101317;28;20036;-66
2022/08/13 06:28:10;;;;;;;3.08;2.88;;;;;;;;;;2101528;28;20028;-68
2022/08/13 06:29:30;;;;;;;2.78;2.58;;;;;;;;;;2100415;28;20484;-67
2022/08/13 06:30:50;;;;;;;2.72;2.40;;;;;;;;;;2102568;28;20032;-67
2022/08/13 06:32:11;;;;;;;2.60;2.50;;;;;;;;;;2100248;28;20454;-67
2022/08/13 06:33:31;;;;;;;3.10;2.80;;;;;;;;;;2100374;28;20048;-67
2022/08/13 06:34:51;;;;;;;3.05;2.47;;;;;;;;;;2100499;28;20036;-66
2022/08/13 06:36:11;;;;;;;2.85;2.65;;;;;;;;;;2099792;28;20683;-69
2022/08/13 06:37:30;;;;;;;2.40;2.20;;;;;;;;;;2099671;28;20035;-72
2022/08/13 06:38:50;;;;;;;2.42;2.25;;;;;;;;;;2100450;28;20024;-72
2022/08/13 06:40:10;;;;;;;3.08;2.53;;;;;;;;;;2100946;28;20036;-72
2022/08/13 06:41:29;;;;;;;2.55;2.13;;;;;;;;;;2101651;28;20059;-74
2022/08/13 06:42:48;;;;;;;2.95;2.33;;;;;;;;;;2098272;28;20033;-73
2022/08/13 06:44:07;;;;;;;2.22;2.13;;;;;;;;;;2098388;28;20051;-70
2022/08/13 06:45:27;;;;;;;2.10;1.90;;;;;;;;;;2100138;28;20480;-72
2022/08/13 06:46:46;;;;;;;2.45;2.33;;;;;;;;;;2100321;28;20492;-73
2022/08/13 06:48:05;;;;;;;2.92;2.30;;;;;;;;;;2099610;28;20024;-73
2022/08/13 06:49:25;;;;;;;2.15;2.00;;;;;;;;;;2098995;28;20504;-74
2022/08/13 06:50:44;;;;;;;4.88;2.35;;;;;;;;;;2100201;28;20024;-75
2022/08/13 06:52:05;;;;;;;2.03;1.80;;;;;;;;;;2100663;28;20024;-74
2022/08/13 06:53:23;;;;;;;2.10;2.00;;;;;;;;;;2100202;28;20029;-73
2022/08/13 06:54:42;;;;;;;2.78;1.98;;;;;;;;;;2099657;28;20025;-72
2022/08/13 06:56:03;;;;;;;3.53;1.95;;;;;;;;;;2102204;28;20037;-69
2022/08/13 06:57:22;;;;;;;2.60;1.77;;;;;;;;;;2102082;28;20384;-72
2022/08/13 06:58:46;;;;;;;2.15;1.95;;;;;;;;;;2098640;28;20033;-69
2022/08/13 07:00:09;;;;;;;2.10;2.00;;;;;;;;;;2098442;28;20032;-72
2022/08/13 07:01:28;;;;;;;2.35;2.20;;;;;;;;;;2100588;28;20013;-71
2022/08/13 07:02:47;;;;;;;1.75;1.60;;;;;;;;;;2100920;28;20071;-72
2022/08/13 07:04:15;;;;;;;4.50;1.90;;;;;;;;;;2101372;28;20806;-71
2022/08/13 07:05:35;;;;;;;3.65;1.88;;;;;;;;;;2098323;28;20449;-72
2022/08/13 07:06:55;;;;;;;2.03;1.92;;;;;;;;;;2096804;28;22137;-68
2022/08/13 07:08:13;;;;;;;2.17;1.95;;;;;;;;;;2096639;28;20031;-71
2022/08/13 07:09:32;;;;;;;2.20;2.10;;;;;;;;;;2099063;28;20025;-63
2022/08/13 07:11:21;;;;;;;1.98;1.88;;;;;;;;;;2099423;28;20086;-64
2022/08/13 07:12:32;;;;;;;1.60;1.50;;;;;;;;;;2098567;28;20064;-64
2022/08/13 07:13:53;;;;;;;2.13;2.00;;;;;;;;;;2099443;28;20032;-64
2022/08/13 07:15:15;;;;;;;2.15;2.03;;;;;;;;;;2097619;28;20480;-63
2022/08/13 07:16:35;;;;;;;2.33;2.10;;;;;;;;;;2099368;28;20436;-63
2022/08/13 07:17:55;;;;;;;1.90;1.80;;;;;;;;;;2100059;28;20028;-64
2022/08/13 07:19:14;;;;;;;2.63;2.00;;;;;;;;;;2098605;28;20469;-66
2022/08/13 07:20:35;;;;;;;1.70;1.60;;;;;;;;;;2101481;28;20059;-71
2022/08/13 07:21:54;;;;;;;3.70;2.10;;;;;;;;;;2100484;28;20111;-73
2022/08/13 07:23:12;;;;;;;2.60;2.20;;;;;;;;;;2100113;28;20040;-70
2022/08/13 07:24:32;;;;;;;5.38;1.73;;;;;;;;;;2100873;28;20382;-72
2022/08/13 07:25:52;;;;;;;1.75;1.65;;;;;;;;;;2100252;28;20488;-73
2022/08/13 07:27:10;;;;;;;4.10;2.15;;;;;;;;;;2101725;28;20076;-75
2022/08/13 07:28:30;;;;;;;1.83;1.73;;;;;;;;;;2099780;28;20028;-75
2022/08/13 07:29:49;;;;;;;2.70;1.83;;;;;;;;;;2101004;28;20036;-75
2022/08/13 07:31:09;;;;;;;2.58;1.63;;;;;;;;;;2100382;28;20020;-71
2022/08/13 07:32:28;;;;;;;3.58;1.95;;;;;;;;;;2098533;28;20028;-66
2022/08/13 07:33:54;;;;;;;3.13;1.70;;;;;;;;;;2101014;28;20028;-72
2022/08/13 07:35:13;;;;;;;2.65;1.73;;;;;;;;;;2100173;28;20028;-69
2022/08/13 07:36:35;;;;;;;2.47;1.48;;;;;;;;;;2097819;28;20028;-65
2022/08/13 07:37:54;;;;;;;1.92;1.33;;;;;;;;;;2100241;28;20460;-65
2022/08/13 07:39:13;;;;;;;2.20;2.00;;;;;;;;;;2100948;28;20060;-64
2022/08/13 07:40:34;;;;;;;3.30;1.50;;;;;;;;;;2100576;28;20476;-63
2022/08/13 07:41:54;;;;;;;1.45;1.35;;;;;;;;;;2098193;28;20029;-63
2022/08/13 07:43:13;;;;;;;1.73;1.60;;;;;;;;;;2098541;28;20032;-63
2022/08/13 07:44:32;;;;;;;3.17;1.50;;;;;;;;;;2100070;28;20032;-63
2022/08/13 07:45:58;;;;;;;2.05;1.95;;;;;;;;;;2098399;28;20416;-63
2022/08/13 07:47:17;;;;;;;1.98;1.60;;;;;;;;;;2098957;28;20444;-63
2022/08/13 07:48:37;;;;;;;2.35;2.00;;;;;;;;;;2098375;28;20032;-64
2022/08/13 07:49:58;;;;;;;1.80;1.70;;;;;;;;;;2098603;28;20479;-63
2022/08/13 07:51:22;;;;;;;2.03;1.90;;;;;;;;;;2099155;28;20032;-64
2022/08/13 07:52:40;;;;;;;1.92;1.83;;;;;;;;;;2099699;28;20025;-65
2022/08/13 07:54:00;;;;;;;3.72;1.70;;;;;;;;;;2098195;28;20040;-64
2022/08/13 07:55:19;;;;;;;4.18;1.65;;;;;;;;;;2098485;28;20111;-64
2022/08/13 07:56:39;;;;;;;2.90;1.42;;;;;;;;;;2099120;28;20655;-64
2022/08/13 07:57:58;;;;;;;1.95;1.80;;;;;;;;;;2099906;28;20458;-61
2022/08/13 07:59:18;;;;;;;4.13;1.85;;;;;;;;;;2100281;28;20114;-63
2022/08/13 08:00:37;;;;;;;2.05;1.75;;;;;;;;;;2098857;28;20037;-67
2022/08/13 08:01:56;;;;;;;1.80;1.70;;;;;;;;;;2099916;28;20031;-64
2022/08/13 08:03:16;;;;;;;2.97;1.58;;;;;;;;;;2101245;28;20028;-65
2022/08/13 08:04:37;;;;;;;4.18;1.80;;;;;;;;;;2100846;28;20021;-63
2022/08/13 08:05:57;;;;;;;1.60;1.50;;;;;;;;;;2097913;28;20031;-64
2022/08/13 08:07:16;;;;;;;4.07;1.80;;;;;;;;;;2098772;28;20028;-65
2022/08/13 08:08:36;;;;;;;3.13;1.98;;;;;;;;;;2098223;28;20484;-65
2022/08/13 08:09:55;;;;;;;1.67;1.58;;;;;;;;;;2099729;28;20025;-65
2022/08/13 08:12:30;;;;;;;1.65;1.55;;;;;;;;;;2096974;28;20033;-66
2022/08/13 08:12:59;;;;;;;1.50;1.40;;;;;;;;;;2100150;28;21066;-68
2022/08/13 08:14:18;;;;;;;4.45;1.80;;;;;;;;;;2097972;28;20032;-64
2022/08/13 08:15:39;;;;;;;3.08;1.60;;;;;;;;;;2098282;28;20937;-63